METAR EVRA 280520Z 17013KT 9999 OVC003 00/00 Q1004 R18/290195 NOSIG =

Controllers Online

PositionControllerOnline
No controllers currently online

Booked ATC Today

* Times are UTC

The time is now

UTC: 

Local: 

Latvia vACC on twitter